Terminal Aerodrome Forecast
Issued by NWS

Home | Current Version | Previous Version | Text Only | Print | Product List | Glossary On
Versions: 1 2 3 4 5 6 7 8 9 10 11 12 13 14 15 16 17 18 19
000
FTUS44 KLZK 190300 AAB
TAFHOT
TAF AMD
KHOT 190349Z 1904/1924 10004KT P6SM BKN030
     FM190500 07003KT 5SM BR SCT012 BKN025
     FM190900 06003KT 2SM BR BKN004
     FM191400 10003KT 5SM BR SCT007 OVC015
     FM191800 12005KT P6SM SCT025=

USA.gov is the U.S. government's official web portal to all federal, state and local government web resources and services.